LFBH/LRH METAR and TAF weather

Enter ICAO airport designator
Station Type Date Time Source
LFBH METAR 2019/02/21 15:30 UTC NOAA

LFBH 211530Z AUTO 12005KT CAVOK 17/07 Q1027 NOSIG


Station Type Date Time Source
LFBH Decoded METAR 2019/02/21 15:30 UTC NOAA

La Rochelle, France (LFBH) 46-09N 001-09W 10M
Feb 21, 2019 - 10:30 AM EST / 2019.02.21 1530 UTC
Wind: from the ESE (120 degrees) at 6 MPH (5 KT):0
Visibility: greater than 7 mile(s):0
Temperature: 62 F (17 C)
Dew Point: 44 F (7 C)
Relative Humidity: 51%
Pressure (altimeter): 30.33 in. Hg (1027 hPa)
ob: LFBH 211530Z AUTO 12005KT CAVOK 17/07 Q1027 NOSIG
cycle: 15

Station Type Date Time Source
LFBH TAF 2019/02/21 12:21 UTC NOAA

TAF LFBH 211100Z 2112/2212 08004KT CAVOK


Example: see airport list